createdAt,value
2023-08-22T00:01:51.739Z,99.90
2023-08-22T00:04:18.535Z,99.90
2023-08-22T00:12:09.806Z,99.90
2023-08-22T00:14:36.640Z,99.90
2023-08-22T00:17:04.119Z,99.90
2023-08-22T00:19:31.014Z,99.90
2023-08-22T00:21:58.090Z,99.90
2023-08-22T00:24:28.846Z,99.90
2023-08-22T00:26:56.521Z,99.90
2023-08-22T00:29:23.835Z,99.90
2023-08-22T00:31:50.638Z,99.90
2023-08-22T00:34:17.432Z,99.90
2023-08-22T00:36:44.250Z,99.90
2023-08-22T00:39:11.390Z,99.90
2023-08-22T00:41:38.124Z,99.90
2023-08-22T00:44:05.053Z,99.90
2023-08-22T00:46:32.474Z,99.90
2023-08-22T00:48:59.748Z,99.90
2023-08-22T00:51:27.270Z,99.90
2023-08-22T00:53:54.064Z,99.90
2023-08-22T00:56:21.276Z,99.90
2023-08-22T00:58:48.628Z,99.90
2023-08-22T01:01:16.406Z,99.90
2023-08-22T01:03:43.233Z,99.90
2023-08-22T01:06:15.828Z,99.90
2023-08-22T01:08:49.895Z,99.90
2023-08-22T01:11:26.566Z,99.90
2023-08-22T01:13:56.357Z,99.90
2023-08-22T01:16:24.842Z,99.90
2023-08-22T01:18:52.253Z,99.90
2023-08-22T01:21:20.883Z,99.90
2023-08-22T01:23:48.305Z,99.90
2023-08-22T01:26:16.020Z,99.90
2023-08-22T01:28:46.758Z,99.90
2023-08-22T01:31:23.026Z,99.90
2023-08-22T01:33:50.138Z,99.90
2023-08-22T01:36:20.533Z,99.90
2023-08-22T01:38:50.259Z,99.90
2023-08-22T01:41:18.236Z,99.90
2023-08-22T01:43:45.688Z,99.90
2023-08-22T01:46:12.883Z,99.90
2023-08-22T01:48:40.178Z,99.90
2023-08-22T01:51:07.575Z,99.90
2023-08-22T01:53:34.785Z,99.90
2023-08-22T01:56:02.024Z,99.90
2023-08-22T01:58:29.408Z,99.90
2023-08-22T02:00:56.199Z,99.90
2023-08-22T02:03:25.175Z,99.90
2023-08-22T02:05:52.544Z,99.90
2023-08-22T02:08:19.285Z,99.90
2023-08-22T02:10:46.453Z,99.90
2023-08-22T02:13:13.211Z,99.90
2023-08-22T02:15:40.417Z,99.90
2023-08-22T02:18:07.482Z,99.90
2023-08-22T02:20:34.686Z,99.90
2023-08-22T02:23:04.175Z,99.90
2023-08-22T02:25:33.353Z,99.90
2023-08-22T02:28:00.917Z,99.90
2023-08-22T02:30:28.097Z,99.90
2023-08-22T02:32:55.030Z,99.90
2023-08-22T02:35:22.369Z,99.90
2023-08-22T02:37:51.114Z,99.90
2023-08-22T02:40:18.514Z,99.90
2023-08-22T02:42:45.282Z,99.90
2023-08-22T02:53:18.795Z,99.90
2023-08-22T02:58:28.767Z,99.90
2023-08-22T03:03:33.269Z,99.90
2023-08-22T03:06:01.117Z,99.90
2023-08-22T03:08:28.445Z,99.90
2023-08-22T03:11:01.341Z,99.90
2023-08-22T03:21:37.827Z,99.90
2023-08-22T03:29:29.545Z,99.90
2023-08-22T03:31:58.963Z,99.90
2023-08-22T03:34:26.103Z,99.90
2023-08-22T03:36:52.866Z,99.90
2023-08-22T03:39:19.985Z,99.90
2023-08-22T03:41:46.759Z,99.90
2023-08-22T03:44:15.148Z,99.90
2023-08-22T03:46:41.940Z,99.90
2023-08-22T03:54:26.740Z,99.90
2023-08-22T03:56:53.518Z,99.90
2023-08-22T03:59:20.276Z,99.90
2023-08-22T04:01:47.616Z,99.90
2023-08-22T04:04:15.936Z,99.90
2023-08-22T04:06:43.628Z,99.90
2023-08-22T04:09:10.570Z,99.90
2023-08-22T04:11:41.072Z,99.90
2023-08-22T04:14:08.017Z,99.90
2023-08-22T04:16:35.288Z,99.90
2023-08-22T04:19:02.419Z,99.90
2023-08-22T04:21:29.618Z,99.90
2023-08-22T04:23:57.814Z,99.90
2023-08-22T04:26:24.623Z,99.90
2023-08-22T04:28:52.252Z,99.90
2023-08-22T04:31:19.077Z,99.90
2023-08-22T04:33:45.872Z,99.90
2023-08-22T04:36:13.001Z,99.90
2023-08-22T04:38:39.767Z,99.90
2023-08-22T04:41:06.978Z,99.90
2023-08-22T04:43:33.745Z,99.90
2023-08-22T04:46:03.780Z,99.90
2023-08-22T04:48:30.813Z,99.90
2023-08-22T04:50:57.752Z,99.90
2023-08-22T04:53:26.121Z,99.90
2023-08-22T04:55:53.001Z,99.90
2023-08-22T04:58:20.131Z,99.90
2023-08-22T05:00:47.222Z,99.90
2023-08-22T05:03:16.693Z,99.90
2023-08-22T05:05:43.636Z,99.90
2023-08-22T05:08:10.427Z,99.90
2023-08-22T05:10:37.649Z,99.90
2023-08-22T05:13:04.575Z,99.90
2023-08-22T05:15:31.767Z,99.90
2023-08-22T05:17:58.581Z,99.90
2023-08-22T05:20:25.397Z,99.90
2023-08-22T05:22:52.493Z,99.90
2023-08-22T05:25:19.419Z,99.90
2023-08-22T05:27:46.593Z,99.90
2023-08-22T05:30:13.460Z,99.90
2023-08-22T05:32:41.675Z,99.90
2023-08-22T05:35:09.230Z,99.90
2023-08-22T05:37:36.630Z,99.90
2023-08-22T05:40:04.740Z,99.90
2023-08-22T05:42:31.879Z,99.90
2023-08-22T05:44:59.022Z,99.90
2023-08-22T05:47:26.324Z,99.90
2023-08-22T05:49:53.171Z,99.90
2023-08-22T05:52:20.940Z,99.90
2023-08-22T05:54:47.732Z,99.90
2023-08-22T05:57:14.474Z,99.90
2023-08-22T05:59:41.254Z,99.90
2023-08-22T06:02:09.075Z,99.90
2023-08-22T06:04:35.915Z,99.90
2023-08-22T06:07:05.502Z,99.90
2023-08-22T06:09:32.711Z,99.90
2023-08-22T06:11:59.964Z,99.90
2023-08-22T06:14:27.168Z,99.90
2023-08-22T06:16:53.935Z,99.90
2023-08-22T06:19:21.402Z,99.90
2023-08-22T06:21:48.260Z,99.90
2023-08-22T06:24:15.052Z,99.90
2023-08-22T06:26:42.774Z,99.90
2023-08-22T06:29:10.319Z,99.90
2023-08-22T06:31:37.724Z,99.90
2023-08-22T06:34:05.033Z,99.90
2023-08-22T06:36:31.840Z,99.90
2023-08-22T06:38:58.662Z,99.90
2023-08-22T06:41:25.488Z,99.90
2023-08-22T06:43:52.316Z,99.90
2023-08-22T06:46:23.259Z,99.90
2023-08-22T06:48:52.941Z,99.90
2023-08-22T06:51:20.197Z,99.90
2023-08-22T06:53:47.056Z,99.90
2023-08-22T06:56:14.205Z,99.90
2023-08-22T07:01:11.515Z,99.90
2023-08-22T07:03:38.493Z,99.90
2023-08-22T07:06:05.521Z,99.90
2023-08-22T07:13:52.483Z,98.40
2023-08-22T07:16:19.366Z,96.60
2023-08-22T07:18:46.252Z,95.70
2023-08-22T07:21:13.658Z,94.00
2023-08-22T07:23:40.449Z,91.40
2023-08-22T07:26:07.636Z,90.10
2023-08-22T07:28:36.731Z,88.80
2023-08-22T07:31:07.830Z,89.00
2023-08-22T07:33:34.713Z,86.20
2023-08-22T07:36:03.278Z,85.20
2023-08-22T07:38:30.846Z,83.40
2023-08-22T07:40:57.601Z,78.10
2023-08-22T07:43:24.821Z,76.10
2023-08-22T07:45:51.693Z,75.60
2023-08-22T07:48:18.504Z,74.10
2023-08-22T07:50:45.256Z,72.00
2023-08-22T07:53:12.065Z,71.50
2023-08-22T07:55:38.851Z,69.90
2023-08-22T07:58:05.606Z,70.50
2023-08-22T08:00:32.904Z,69.40
2023-08-22T08:02:59.777Z,68.90
2023-08-22T08:08:09.343Z,65.10
2023-08-22T08:10:38.104Z,64.80
2023-08-22T08:13:05.080Z,65.30
2023-08-22T08:15:32.517Z,65.10
2023-08-22T08:18:00.579Z,64.00
2023-08-22T08:20:27.484Z,64.40
2023-08-22T08:25:29.812Z,65.20
2023-08-22T08:27:57.001Z,64.60
2023-08-22T08:30:23.837Z,63.60
2023-08-22T08:32:50.644Z,62.60
2023-08-22T08:54:06.506Z,60.40
2023-08-22T08:56:33.419Z,60.70
2023-08-22T09:01:45.638Z,61.70
2023-08-22T09:04:12.908Z,60.30
2023-08-22T09:06:39.680Z,61.60
2023-08-22T09:09:09.931Z,61.50
2023-08-22T09:11:46.659Z,61.30
2023-08-22T09:14:20.584Z,60.60
2023-08-22T09:16:49.118Z,62.10
2023-08-22T09:19:16.459Z,60.30
2023-08-22T09:22:00.767Z,59.90
2023-08-22T09:24:31.190Z,59.40
2023-08-22T09:29:43.979Z,59.90
2023-08-22T09:32:10.872Z,60.20
2023-08-22T09:34:37.743Z,64.40
2023-08-22T09:37:04.602Z,64.40
2023-08-22T09:39:34.597Z,65.70
2023-08-22T09:42:04.756Z,66.10
2023-08-22T09:44:31.631Z,66.50
2023-08-22T09:46:58.785Z,68.10
2023-08-22T09:52:04.512Z,65.20
2023-08-22T09:54:31.604Z,67.40
2023-08-22T09:56:59.758Z,67.10
2023-08-22T09:59:27.748Z,69.50
2023-08-22T10:01:56.308Z,68.00
2023-08-22T10:07:06.078Z,67.10
2023-08-22T10:09:33.423Z,66.20
2023-08-22T10:12:03.663Z,67.20
2023-08-22T10:14:39.112Z,70.10
2023-08-22T10:17:07.148Z,68.40
2023-08-22T10:19:34.031Z,69.00
2023-08-22T10:22:15.045Z,70.10
2023-08-22T10:24:43.296Z,70.10
2023-08-22T10:27:15.454Z,69.80
2023-08-22T10:29:47.315Z,70.60
2023-08-22T10:32:23.323Z,71.40
2023-08-22T10:34:50.488Z,70.70
2023-08-22T10:37:24.018Z,71.80
2023-08-22T10:39:52.602Z,73.10
2023-08-22T10:42:27.061Z,72.40
2023-08-22T10:44:57.920Z,71.80
2023-08-22T10:47:31.802Z,70.80
2023-08-22T10:50:15.910Z,69.60
2023-08-22T10:52:45.662Z,69.60
2023-08-22T10:55:13.822Z,68.10
2023-08-22T11:00:25.297Z,67.30
2023-08-22T11:05:43.626Z,68.30
2023-08-22T11:08:11.021Z,69.70
2023-08-22T11:10:39.682Z,70.50
2023-08-22T11:13:11.310Z,72.20
2023-08-22T11:15:39.153Z,71.10
2023-08-22T11:20:56.820Z,69.80
2023-08-22T11:23:23.700Z,70.00
2023-08-22T11:25:50.840Z,69.10
2023-08-22T11:28:17.951Z,68.00
2023-08-22T11:30:45.356Z,67.20
2023-08-22T11:33:20.933Z,67.30
2023-08-22T11:35:47.852Z,69.80
2023-08-22T11:38:14.674Z,68.20
2023-08-22T11:43:23.759Z,68.50
2023-08-22T11:45:50.618Z,68.40
2023-08-22T11:48:20.781Z,68.20
2023-08-22T11:50:47.986Z,67.50
2023-08-22T11:53:17.073Z,68.60
2023-08-22T11:55:48.934Z,68.00
2023-08-22T12:00:56.735Z,66.90
2023-08-22T12:03:23.580Z,67.60
2023-08-22T12:05:50.826Z,68.60
2023-08-22T12:08:22.091Z,68.70
2023-08-22T12:10:53.941Z,68.90
2023-08-22T12:13:22.713Z,69.40
2023-08-22T12:15:50.297Z,68.70
2023-08-22T12:18:18.384Z,69.10
2023-08-22T12:20:47.273Z,66.80
2023-08-22T12:25:43.524Z,67.80
2023-08-22T12:28:11.548Z,67.80
2023-08-22T12:30:44.530Z,67.20
2023-08-22T12:35:40.491Z,67.20
2023-08-22T12:38:09.035Z,66.60
2023-08-22T12:53:17.022Z,66.80
2023-08-22T13:15:33.894Z,64.50
2023-08-22T13:27:51.405Z,62.30
2023-08-22T13:37:44.880Z,61.20
2023-08-22T13:42:41.340Z,65.10
2023-08-22T13:45:09.145Z,62.60
2023-08-22T13:47:39.796Z,63.20
2023-08-22T13:50:07.776Z,63.00
2023-08-22T13:52:34.534Z,64.30
2023-08-22T13:55:01.314Z,65.20
2023-08-22T13:57:29.196Z,63.20
2023-08-22T14:09:49.741Z,64.30
2023-08-22T14:14:43.783Z,65.90
2023-08-22T14:46:41.414Z,63.50
2023-08-22T14:51:40.342Z,64.70
2023-08-22T14:56:35.937Z,66.20
2023-08-22T14:59:03.129Z,64.90
2023-08-22T15:01:31.517Z,66.10
2023-08-22T15:48:35.936Z,99.90
2023-08-22T15:51:02.871Z,99.90
2023-08-22T15:53:31.250Z,99.90
2023-08-22T15:55:58.335Z,99.90
2023-08-22T15:58:25.161Z,99.90
2023-08-22T16:03:32.497Z,99.90
2023-08-22T16:05:59.391Z,99.90
2023-08-22T16:08:26.822Z,99.90
2023-08-22T16:10:55.257Z,99.90
2023-08-22T16:13:22.098Z,99.90
2023-08-22T16:15:50.197Z,99.90
2023-08-22T16:18:16.985Z,99.90
2023-08-22T16:20:45.873Z,99.90
2023-08-22T16:23:13.100Z,99.90
2023-08-22T16:25:44.134Z,99.90
2023-08-22T16:28:10.923Z,99.90
2023-08-22T16:30:37.800Z,99.90
2023-08-22T16:33:05.288Z,99.90
2023-08-22T16:35:32.056Z,99.90
2023-08-22T16:37:58.804Z,99.90
2023-08-22T16:40:25.931Z,99.90
2023-08-22T16:42:52.709Z,99.90
2023-08-22T16:45:19.908Z,99.90
2023-08-22T16:47:47.180Z,99.90
2023-08-22T16:50:14.287Z,99.90
2023-08-22T16:52:41.138Z,99.90
2023-08-22T16:55:08.229Z,99.90
2023-08-22T16:57:35.228Z,99.90
2023-08-22T17:00:02.849Z,99.90
2023-08-22T17:02:29.629Z,99.90
2023-08-22T17:04:56.886Z,99.90
2023-08-22T17:07:23.693Z,99.90
2023-08-22T17:09:50.921Z,99.90
2023-08-22T17:12:19.066Z,99.90
2023-08-22T17:14:45.926Z,99.90
2023-08-22T17:22:07.893Z,99.90
2023-08-22T17:24:34.666Z,99.90
2023-08-22T18:21:11.844Z,99.90
2023-08-22T18:23:40.421Z,99.90
2023-08-22T18:26:12.604Z,99.90
2023-08-22T18:36:55.227Z,99.90
2023-08-22T18:51:52.488Z,99.90
2023-08-22T19:43:59.774Z,99.90
2023-08-22T20:01:58.234Z,99.90
2023-08-22T20:07:52.662Z,99.90
2023-08-22T20:12:55.317Z,99.90
2023-08-22T20:15:26.686Z,99.90
2023-08-22T20:17:57.784Z,99.90
2023-08-22T20:20:26.501Z,99.90
2023-08-22T20:22:57.491Z,99.90
2023-08-22T20:25:24.327Z,99.90
2023-08-22T20:30:54.362Z,99.90
2023-08-22T20:36:09.396Z,99.90
2023-08-22T20:38:36.815Z,99.90
2023-08-22T20:41:04.032Z,99.90
2023-08-22T20:43:32.152Z,99.90
2023-08-22T20:46:02.609Z,99.90
2023-08-22T20:48:29.994Z,99.90
2023-08-22T20:50:57.253Z,99.90
2023-08-22T20:53:24.905Z,99.90
2023-08-22T20:55:55.798Z,99.90
2023-08-22T20:58:23.828Z,99.90
2023-08-22T21:00:52.254Z,99.90
2023-08-22T21:03:24.641Z,99.90
2023-08-22T21:05:54.202Z,99.90
2023-08-22T21:08:21.059Z,99.90
2023-08-22T21:10:50.538Z,99.90
2023-08-22T21:13:17.421Z,99.90
2023-08-22T21:15:47.347Z,99.90
2023-08-22T21:18:17.101Z,99.90
2023-08-22T21:20:53.923Z,99.90
2023-08-22T21:23:22.189Z,99.90
2023-08-22T21:25:53.476Z,99.90
2023-08-22T21:28:23.568Z,99.90
2023-08-22T21:30:53.014Z,99.90
2023-08-22T21:33:27.265Z,99.90
2023-08-22T21:35:59.583Z,99.90
2023-08-22T21:38:33.458Z,99.90
2023-08-22T21:41:04.956Z,99.90
2023-08-22T21:43:38.250Z,99.90
2023-08-22T21:46:12.312Z,99.90
2023-08-22T21:48:42.561Z,99.90
2023-08-22T21:51:10.327Z,99.90
2023-08-22T21:53:40.591Z,99.90
2023-08-22T21:56:11.971Z,99.90
2023-08-22T21:58:42.223Z,99.90
2023-08-22T22:01:16.554Z,99.90
2023-08-22T22:03:45.335Z,99.90
2023-08-22T22:06:13.000Z,99.90
2023-08-22T22:08:40.107Z,99.90
2023-08-22T22:11:10.101Z,99.90
2023-08-22T22:13:36.959Z,99.90
2023-08-22T22:16:04.922Z,99.90
2023-08-22T22:18:32.120Z,99.90
2023-08-22T22:21:01.019Z,99.90
2023-08-22T22:23:28.298Z,99.90
2023-08-22T22:26:11.456Z,99.90
2023-08-22T22:28:40.347Z,99.90
2023-08-22T22:31:12.981Z,99.90
2023-08-22T22:33:40.965Z,99.90
2023-08-22T22:36:08.718Z,99.90
2023-08-22T22:38:36.238Z,99.90
2023-08-22T22:41:04.212Z,99.90
2023-08-22T22:43:33.832Z,99.90
2023-08-22T22:46:01.434Z,99.90
2023-08-22T22:48:28.516Z,99.90
2023-08-22T22:50:56.130Z,99.90
2023-08-22T22:53:23.165Z,99.90
2023-08-22T22:55:50.420Z,99.90
2023-08-22T22:58:18.515Z,99.90
2023-08-22T23:00:45.458Z,99.90
2023-08-22T23:03:13.756Z,99.90
2023-08-22T23:05:41.154Z,99.90
2023-08-22T23:08:09.252Z,99.90
2023-08-22T23:10:36.056Z,99.90
2023-08-22T23:13:03.395Z,99.90
2023-08-22T23:15:30.865Z,99.90
2023-08-22T23:17:57.707Z,99.90
2023-08-22T23:20:24.994Z,99.90
2023-08-22T23:22:51.903Z,99.90
2023-08-22T23:25:19.296Z,99.90
2023-08-22T23:27:46.414Z,99.90
2023-08-22T23:30:17.243Z,99.90
2023-08-22T23:32:44.835Z,99.90
2023-08-22T23:35:11.715Z,99.90
2023-08-22T23:37:40.079Z,99.90
2023-08-22T23:40:27.985Z,99.90
2023-08-22T23:42:57.318Z,99.90
2023-08-22T23:45:26.405Z,99.90
2023-08-22T23:47:53.654Z,99.90
2023-08-22T23:50:20.950Z,99.90
2023-08-22T23:52:48.201Z,99.90
2023-08-22T23:55:15.167Z,99.90
2023-08-22T23:57:42.629Z,99.90
